メインページ
METAR-TAF:

METAR-TAF

空港 :

アルマトイ国際空港

アルマトイ, カザフスタン

緯度: 43-14N, 経度: 076-56E, 海抜: 847m

現時点の気象観測

当レポートは21分前の23:30(UTC)に作成
南/南西の風 4kt
気温 20°C
湿度 83%
気圧 1003 hPa
視程10km以上
高度5000ftの千切れ雲あり, 積乱雲.
高度10000ftの曇り

METAR: UAAA 162330Z 20002MPS 9999 BKN050CB OVC100 20/17 Q1003 R05R/2/0150 TEMPO VRB16MPS 3000 TSRA SQ

時間: 05:51 (23:51 UTC)

予報

当レポートは51分前の23:00(UTC)に作成
予報は17日の 00時(UTC)から 17日の 24時(UTC)まで有効
西の風 10kt
視程10km以上
高度5000ftの千切れ雲あり, 積乱雲.
高度10000ftの千切れ雲あり
17日の 00時(UTC)から 17日の 06時(UTC)まで一時的に
南/南西の風 16kt、最大25ktの突風を伴う
激しい雷雨, 小雨
17日の 06時(UTC)から 17日の 14時(UTC)まで一時的に
変向風 33kt
視程: 3000m
激しい雷雨, 雨, スコール
17日の 14時(UTC)から 17日の 24時(UTC)まで一時的に
激しい雷雨, 小雨

TAF: UAAA 162300Z 1700/1724 28005MPS 9999 BKN050CB BKN100 TX34/1709Z TN19/1701Z TEMPO 1700/1706 20008G13MPS -TSRA TEMPO 1706/1714 VRB17MPS 3000 TSRA SQ TEMPO 1714/1724 -TSRA

4,000以上の空港の気象観測と天気予報(METAR報とTAF報)

利用可能な観測所は地図上に黄色い丸と赤い丸で示す。

丸の上にカーソルを重ねると観測所名を参照できる。

次にクリックすると気象観測と天気予報を参照できる。

マップの切り替え:黒色「×」印の緑ボタンをクリックして拡大、「-」印の緑ボタンをクリックして縮小、緑色の三角印をクリックして隣りの地図に切り替え


METAR-TAF: